Time;durP1;ratioP1;P1;durP2;ratioP2;P2;SDS_P1;SDS_P2;PMS_P1;PMS_P2;Temp;Humidity;BMP_temperature;BMP_pressure;BME280_temperature;BME280_humidity;BME280_pressure;Samples;Min_cycle;Max_cycle;Signal;HPM_P1;HPM_P2
2023/06/24 00:00:52;;;;;;;18.10;11.75;;;;;;;19.13;100.00;101421.56;8270378;28;20125;-59
2023/06/24 00:04:53;;;;;;;19.40;11.35;;;;;;;19.12;100.00;101422.59;8268896;28;20069;-59
2023/06/24 00:09:00;;;;;;;14.48;11.73;;;;;;;19.19;100.00;101426.34;8272871;28;20114;-62
2023/06/24 00:13:02;;;;;;;14.95;10.20;;;;;;;19.23;100.00;101430.47;8268899;28;20457;-61
2023/06/24 00:17:02;;;;;;;17.38;13.80;;;;;;;19.32;100.00;101426.72;8273079;28;20046;-61
2023/06/24 00:21:03;;;;;;;14.90;13.02;;;;;;;19.25;100.00;101425.66;8271687;28;20049;-62
2023/06/24 00:25:05;;;;;;;19.48;13.32;;;;;;;19.39;100.00;101427.72;8271184;28;20039;-62
2023/06/24 00:29:05;;;;;;;19.58;12.77;;;;;;;19.44;100.00;101430.81;8277471;28;20133;-61
2023/06/24 00:33:09;;;;;;;19.95;14.05;;;;;;;19.42;100.00;101427.38;8279621;28;20044;-61
2023/06/24 00:37:09;;;;;;;18.03;13.67;;;;;;;19.35;100.00;101426.38;8273569;28;20455;-62
2023/06/24 00:41:10;;;;;;;20.50;13.82;;;;;;;19.29;100.00;101421.59;8273504;28;20085;-61
2023/06/24 00:45:12;;;;;;;26.75;14.43;;;;;;;19.21;100.00;101412.47;8271395;28;20050;-62
2023/06/24 00:49:14;;;;;;;20.33;14.45;;;;;;;19.20;100.00;101408.88;8273384;28;20053;-61
2023/06/24 00:53:16;;;;;;;24.15;14.50;;;;;;;19.20;100.00;101417.13;8271112;28;20044;-62
2023/06/24 00:57:23;;;;;;;20.13;14.02;;;;;;;19.20;100.00;101419.88;8270853;28;20050;-62
2023/06/24 01:01:24;;;;;;;18.88;13.52;;;;;;;19.13;100.00;101424.31;8270804;28;20101;-62
2023/06/24 01:05:26;;;;;;;17.30;14.20;;;;;;;19.09;100.00;101420.22;8271845;28;20037;-62
2023/06/24 01:09:27;;;;;;;18.42;14.52;;;;;;;18.99;100.00;101416.81;8264206;28;20041;-60
2023/06/24 01:13:28;;;;;;;22.83;14.07;;;;;;;19.04;100.00;101424.50;8271762;28;20065;-61
2023/06/24 01:17:41;;;;;;;21.27;13.63;;;;;;;18.85;100.00;101417.47;8273011;28;20038;-63
2023/06/24 01:22:00;;;;;;;19.55;12.80;;;;;;;18.78;100.00;101419.22;8268731;28;20038;-61
2023/06/24 01:26:31;;;;;;;18.95;12.57;;;;;;;18.74;100.00;101414.25;8273425;28;20056;-61
2023/06/24 01:31:11;;;;;;;27.58;13.00;;;;;;;18.71;100.00;101409.97;8270480;28;20068;-61
2023/06/24 01:35:16;;;;;;;22.17;12.75;;;;;;;18.63;100.00;101412.69;8272587;28;20050;-61
2023/06/24 01:39:21;;;;;;;19.25;11.48;;;;;;;18.58;100.00;101409.63;8273025;28;20048;-62
2023/06/24 01:43:23;;;;;;;20.20;12.52;;;;;;;18.62;100.00;101410.13;8271258;28;20312;-61
2023/06/24 01:47:26;;;;;;;22.45;11.63;;;;;;;18.71;100.00;101404.50;8271636;28;20049;-62
2023/06/24 01:51:29;;;;;;;23.75;12.38;;;;;;;18.61;100.00;101409.28;8266180;28;20045;-61
2023/06/24 01:55:32;;;;;;;24.25;11.27;;;;;;;18.62;100.00;101411.00;8271131;28;20111;-61
2023/06/24 01:59:34;;;;;;;22.48;12.45;;;;;;;18.63;100.00;101406.38;8265783;28;21913;-62
2023/06/24 02:03:36;;;;;;;20.88;10.70;;;;;;;18.50;100.00;101395.06;8267223;28;20069;-59
2023/06/24 02:07:38;;;;;;;20.80;11.60;;;;;;;18.55;100.00;101409.09;8266408;28;20034;-59
2023/06/24 02:11:41;;;;;;;21.38;12.20;;;;;;;18.44;100.00;101413.03;8270868;28;20047;-59
2023/06/24 02:15:45;;;;;;;17.77;11.95;;;;;;;18.38;100.00;101413.72;8269399;28;20610;-59
2023/06/24 02:19:47;;;;;;;19.00;11.73;;;;;;;18.41;100.00;101407.03;8271330;28;20034;-59
2023/06/24 02:23:49;;;;;;;24.83;11.57;;;;;;;18.33;100.00;101409.75;8273489;28;20272;-58
2023/06/24 02:27:50;;;;;;;27.77;11.82;;;;;;;18.31;100.00;101409.91;8268652;28;20511;-58
2023/06/24 02:31:50;;;;;;;27.52;11.27;;;;;;;18.32;100.00;101408.00;8269312;28;20049;-59
2023/06/24 02:35:51;;;;;;;21.30;11.60;;;;;;;18.31;100.00;101401.69;8270917;28;20049;-59
2023/06/24 02:39:51;;;;;;;26.10;10.93;;;;;;;18.26;100.00;101397.72;8268052;28;20061;-59
2023/06/24 02:43:52;;;;;;;19.55;11.68;;;;;;;18.19;100.00;101408.50;8277760;28;20069;-59
2023/06/24 02:47:54;;;;;;;22.17;11.95;;;;;;;18.30;100.00;101412.81;8272631;28;20103;-60
2023/06/24 02:51:55;;;;;;;25.30;10.68;;;;;;;18.25;100.00;101407.84;8271707;28;20112;-59
2023/06/24 02:55:57;;;;;;;20.65;11.40;;;;;;;18.03;100.00;101408.47;8276361;28;20062;-60
2023/06/24 02:59:58;;;;;;;31.95;11.40;;;;;;;17.98;100.00;101405.38;8291255;28;20049;-59
2023/06/24 03:04:05;;;;;;;34.13;12.13;;;;;;;17.94;100.00;101414.94;8276884;28;20053;-59
2023/06/24 03:08:07;;;;;;;31.00;11.57;;;;;;;17.97;100.00;101420.09;8275436;28;20070;-59
2023/06/24 03:12:11;;;;;;;31.92;9.65;;;;;;;17.85;100.00;101415.94;8278579;28;20041;-59
2023/06/24 03:16:15;;;;;;;27.40;11.57;;;;;;;17.91;100.00;101420.75;8268459;28;20049;-59
2023/06/24 03:20:38;;;;;;;28.60;11.20;;;;;;;17.88;100.00;101426.56;8273530;28;20035;-59
2023/06/24 03:24:39;;;;;;;31.77;11.60;;;;;;;18.08;100.00;101432.63;8274968;28;20034;-59
2023/06/24 03:28:39;;;;;;;27.52;10.82;;;;;;;17.83;100.00;101436.25;8273489;28;20042;-58
2023/06/24 03:32:46;;;;;;;25.92;10.90;;;;;;;17.89;100.00;101433.72;8273595;28;20046;-59
2023/06/24 03:36:47;;;;;;;29.25;10.45;;;;;;;17.74;100.00;101435.38;8275440;28;20045;-58
2023/06/24 03:40:49;;;;;;;24.10;11.18;;;;;;;17.82;100.00;101446.38;8274001;28;20042;-61
2023/06/24 03:44:50;;;;;;;31.95;11.45;;;;;;;17.63;100.00;101443.91;8273546;28;20382;-62
2023/06/24 03:48:51;;;;;;;26.77;11.00;;;;;;;17.67;100.00;101445.28;8275608;28;20060;-61
2023/06/24 03:52:52;;;;;;;30.63;10.82;;;;;;;17.54;100.00;101433.94;8272578;28;20585;-62
2023/06/24 03:56:52;;;;;;;31.17;12.35;;;;;;;17.64;100.00;101445.59;8272791;28;20451;-62
2023/06/24 04:00:56;;;;;;;26.98;10.70;;;;;;;17.71;100.00;101438.44;8264885;28;20046;-62
2023/06/24 04:04:57;;;;;;;28.20;11.07;;;;;;;17.88;100.00;101442.97;8229947;28;20042;-61
2023/06/24 04:08:58;;;;;;;23.48;11.05;;;;;;;18.04;100.00;101442.16;8257025;28;20054;-61
2023/06/24 04:12:59;;;;;;;28.58;10.23;;;;;;;18.00;100.00;101447.13;8271852;28;20050;-61
2023/06/24 04:17:01;;;;;;;26.08;10.70;;;;;;;18.08;100.00;101444.41;8274522;28;20096;-61
2023/06/24 04:21:02;;;;;;;24.08;10.00;;;;;;;18.14;100.00;101454.69;8271143;28;20530;-61
2023/06/24 04:25:05;;;;;;;28.67;9.98;;;;;;;18.21;100.00;101466.66;8272084;28;20073;-61
2023/06/24 04:29:05;;;;;;;26.35;9.82;;;;;;;18.46;100.00;101465.75;8269990;28;20038;-61
2023/06/24 04:33:06;;;;;;;33.40;10.55;;;;;;;18.65;100.00;101470.91;8247800;28;20109;-61
2023/06/24 04:37:07;;;;;;;31.63;10.20;;;;;;;18.66;100.00;101469.88;8260134;28;20216;-61
2023/06/24 04:41:08;;;;;;;32.35;9.63;;;;;;;18.63;100.00;101466.66;8272674;28;20282;-61
2023/06/24 04:45:09;;;;;;;26.35;10.27;;;;;;;18.96;100.00;101463.75;8274214;28;20209;-61
2023/06/24 04:49:09;;;;;;;25.48;9.52;;;;;;;19.24;100.00;101456.88;8272919;28;20456;-62
2023/06/24 04:53:09;;;;;;;39.25;9.93;;;;;;;19.45;100.00;101465.44;8272636;28;20492;-61
2023/06/24 04:57:24;;;;;;;34.10;9.93;;;;;;;19.68;100.00;101460.06;8270640;28;20042;-62
2023/06/24 05:01:24;;;;;;;27.73;9.88;;;;;;;19.82;100.00;101466.69;8269373;28;20103;-62
2023/06/24 05:05:25;;;;;;;22.73;9.40;;;;;;;19.94;100.00;101465.28;8270729;28;20074;-59
2023/06/24 05:09:25;;;;;;;27.63;9.25;;;;;;;20.00;100.00;101470.06;8273201;28;20567;-59
2023/06/24 05:13:27;;;;;;;22.23;9.45;;;;;;;19.98;100.00;101466.63;8271923;28;20042;-59
2023/06/24 05:17:28;;;;;;;21.65;9.00;;;;;;;20.01;100.00;101463.53;8272183;28;20037;-60
2023/06/24 05:21:28;;;;;;;27.00;8.68;;;;;;;20.26;100.00;101467.91;8269282;28;20046;-59
2023/06/24 05:25:28;;;;;;;19.63;8.73;;;;;;;20.53;99.53;101461.91;8261624;28;20091;-59
2023/06/24 05:29:29;;;;;;;24.13;9.25;;;;;;;21.02;97.00;101463.28;8278969;28;20068;-60
2023/06/24 05:33:30;;;;;;;26.75;8.52;;;;;;;21.39;94.29;101466.00;8269515;28;20041;-59
2023/06/24 05:37:31;;;;;;;24.70;8.55;;;;;;;21.32;95.30;101448.56;8266390;28;20049;-58
2023/06/24 05:41:31;;;;;;;18.40;9.00;;;;;;;21.71;95.30;101465.63;8270933;28;20068;-58
2023/06/24 05:45:32;;;;;;;20.73;9.20;;;;;;;22.10;92.85;101468.97;8268201;28;20041;-58
2023/06/24 05:49:32;;;;;;;23.02;9.02;;;;;;;22.30;93.61;101467.34;8271596;28;20038;-58
2023/06/24 05:53:32;;;;;;;16.92;8.30;;;;;;;22.53;90.44;101468.06;8267870;28;20084;-58
2023/06/24 05:57:33;;;;;;;19.13;8.90;;;;;;;23.04;91.65;101460.53;8266386;28;20496;-57
2023/06/24 06:01:34;;;;;;;17.48;8.60;;;;;;;23.65;86.22;101458.91;8269518;28;20057;-59
2023/06/24 06:05:34;;;;;;;23.58;9.55;;;;;;;23.81;84.33;101464.94;8271727;28;20033;-58
2023/06/24 06:09:34;;;;;;;16.20;9.90;;;;;;;24.15;82.73;101464.94;8260483;28;20041;-62
2023/06/24 06:13:35;;;;;;;15.45;8.50;;;;;;;24.28;79.45;101472.47;8284448;28;20046;-60
2023/06/24 06:17:35;;;;;;;13.33;8.37;;;;;;;24.45;76.51;101479.31;8272222;28;20042;-60
2023/06/24 06:21:36;;;;;;;14.52;8.85;;;;;;;24.61;76.28;101467.91;8271042;28;20277;-60
2023/06/24 06:25:38;;;;;;;17.45;8.95;;;;;;;24.70;73.22;101484.13;8275526;28;20045;-60
2023/06/24 06:29:38;;;;;;;10.65;7.90;;;;;;;24.76;73.08;101482.41;8275236;28;20084;-60
2023/06/24 06:33:39;;;;;;;13.90;7.88;;;;;;;24.77;71.76;101484.13;8273650;28;20038;-60
2023/06/24 06:37:39;;;;;;;12.10;7.97;;;;;;;24.68;72.13;101490.94;8277945;28;20180;-60
2023/06/24 06:41:39;;;;;;;15.25;7.30;;;;;;;25.06;70.83;101489.28;8275703;28;20045;-60
2023/06/24 06:45:49;;;;;;;12.05;6.80;;;;;;;25.41;70.86;101487.22;8279038;28;20125;-64
2023/06/24 06:49:49;;;;;;;12.45;6.63;;;;;;;25.51;70.46;101494.03;8276906;28;20054;-60
2023/06/24 06:53:50;;;;;;;10.15;6.72;;;;;;;25.82;68.46;101490.56;8276208;28;20045;-60
2023/06/24 06:57:50;;;;;;;9.98;7.05;;;;;;;26.02;67.48;101492.28;8271848;28;20045;-60
2023/06/24 07:01:51;;;;;;;9.70;6.47;;;;;;;25.97;66.60;101500.34;8271567;28;20081;-60
2023/06/24 07:05:51;;;;;;;11.07;5.43;;;;;;;26.05;66.15;101496.53;8274153;28;20364;-60
2023/06/24 07:09:52;;;;;;;11.23;5.55;;;;;;;26.08;62.88;101508.03;8274678;28;20133;-61
2023/06/24 07:13:52;;;;;;;14.15;5.85;;;;;;;26.16;64.85;101505.00;8276271;28;20160;-60
2023/06/24 07:17:53;;;;;;;11.13;6.30;;;;;;;26.26;64.79;101499.84;8273872;28;20038;-61
2023/06/24 07:21:54;;;;;;;12.43;6.22;;;;;;;26.55;65.56;101499.31;8275073;28;20057;-61
2023/06/24 07:25:54;;;;;;;9.85;6.03;;;;;;;26.93;63.86;101495.72;8275845;28;20046;-60
2023/06/24 07:29:54;;;;;;;11.95;5.88;;;;;;;26.68;61.25;101496.50;8269111;28;20038;-61
2023/06/24 07:33:55;;;;;;;13.60;6.00;;;;;;;26.26;62.54;101497.06;8275890;28;20371;-60
2023/06/24 07:37:55;;;;;;;13.43;5.97;;;;;;;26.25;61.83;101500.94;8273316;28;20057;-60
2023/06/24 07:41:56;;;;;;;9.77;5.32;;;;;;;26.71;62.47;101498.81;8273451;28;20045;-60
2023/06/24 07:45:57;;;;;;;15.70;6.65;;;;;;;26.35;61.44;101498.53;8274791;28;20501;-61
2023/06/24 07:49:58;;;;;;;11.60;5.53;;;;;;;26.60;62.90;101496.69;8275836;28;20393;-60
2023/06/24 07:53:58;;;;;;;10.32;5.70;;;;;;;27.22;61.78;101492.28;8270743;28;20042;-60
2023/06/24 07:57:58;;;;;;;10.35;5.65;;;;;;;27.40;63.54;101493.25;8273091;28;20093;-61
2023/06/24 08:01:59;;;;;;;11.00;5.28;;;;;;;27.23;60.00;101496.78;8281003;28;20058;-60
2023/06/24 08:05:59;;;;;;;7.03;5.22;;;;;;;27.23;61.13;101496.78;8275522;28;20143;-60
2023/06/24 08:10:00;;;;;;;9.98;5.20;;;;;;;27.57;62.61;101487.97;8275993;28;20042;-60
2023/06/24 08:14:01;;;;;;;11.43;6.25;;;;;;;27.21;60.70;101488.66;8273534;28;20046;-60
2023/06/24 08:18:02;;;;;;;11.20;6.28;;;;;;;27.05;60.56;101494.78;8273679;28;20082;-61
2023/06/24 08:22:04;;;;;;;13.63;6.28;;;;;;;27.05;60.99;101488.38;8272384;28;20053;-60
2023/06/24 08:26:04;;;;;;;13.13;6.72;;;;;;;26.77;61.07;101486.84;8271148;28;20038;-61
2023/06/24 08:30:06;;;;;;;13.57;6.78;;;;;;;27.18;61.83;101491.03;8272084;28;20049;-60
2023/06/24 08:34:07;;;;;;;8.50;5.35;;;;;;;27.68;62.31;101492.75;8272253;28;20130;-61
2023/06/24 08:38:07;;;;;;;17.05;6.57;;;;;;;28.23;62.81;101488.97;8272306;28;20038;-62
2023/06/24 08:42:08;;;;;;;11.50;6.37;;;;;;;27.81;59.57;101487.91;8272325;28;20070;-62
2023/06/24 08:46:09;;;;;;;9.05;6.95;;;;;;;27.87;64.36;101480.66;8274022;28;20364;-62
2023/06/24 08:50:13;;;;;;;11.50;6.60;;;;;;;27.87;61.25;101473.13;8270808;28;20525;-60
2023/06/24 08:54:14;;;;;;;;;;;;;;;28.20;60.73;101483.88;8269634;28;20030;-60
2023/06/24 08:58:15;;;;;;;12.45;7.03;;;;;;;28.10;59.09;101490.00;8264213;28;20004;-60
2023/06/24 09:02:15;;;;;;;12.52;7.30;;;;;;;28.07;61.34;101478.47;8270841;28;20038;-60
2023/06/24 09:06:16;;;;;;;14.80;6.97;;;;;;;28.20;60.71;101478.31;8270940;28;20042;-61
2023/06/24 09:10:35;;;;;;;11.85;7.22;;;;;;;28.36;61.27;101477.72;8289140;28;20112;-61
2023/06/24 09:14:35;;;;;;;11.50;6.60;;;;;;;28.31;59.40;101474.75;8270761;28;20391;-59
2023/06/24 09:18:36;;;;;;;13.65;7.22;;;;;;;28.02;59.61;101476.38;8273207;28;20064;-59
2023/06/24 09:22:41;;;;;;;9.45;5.90;;;;;;;28.75;59.56;101471.59;8271064;28;20044;-59
2023/06/24 09:26:44;;;;;;;13.85;5.68;;;;;;;29.30;61.23;101464.75;8266128;28;20038;-59
2023/06/24 09:30:45;;;;;;;11.13;6.18;;;;;;;29.49;60.40;101463.56;8271970;28;20038;-58
2023/06/24 09:34:45;;;;;;;13.27;6.38;;;;;;;29.01;57.63;101465.66;8270146;28;20046;-59
2023/06/24 09:38:46;;;;;;;9.97;5.87;;;;;;;29.16;56.23;101454.09;8272706;28;20045;-59
2023/06/24 09:42:52;;;;;;;14.27;6.97;;;;;;;28.98;58.31;101446.63;8270993;28;20348;-59
2023/06/24 09:46:54;;;;;;;10.60;5.82;;;;;;;29.07;57.25;101439.66;8273411;28;20120;-59
2023/06/24 09:51:12;;;;;;;12.00;6.50;;;;;;;28.79;56.88;101439.44;8269139;28;20079;-58
2023/06/24 09:55:14;;;;;;;13.00;6.47;;;;;;;28.91;57.50;101431.97;8269150;28;20404;-59
2023/06/24 09:59:19;;;;;;;8.95;5.35;;;;;;;29.19;57.10;101437.75;8268340;28;20042;-58
2023/06/24 10:03:20;;;;;;;13.05;5.47;;;;;;;30.72;55.02;101439.84;8272729;28;20145;-59
2023/06/24 10:07:21;;;;;;;14.50;5.82;;;;;;;30.57;54.38;101433.97;8271606;28;20042;-59
2023/06/24 10:11:23;;;;;;;9.90;5.05;;;;;;;31.96;50.25;101428.28;8270970;28;20040;-59
2023/06/24 10:15:23;;;;;;;9.63;5.45;;;;;;;33.80;46.62;101420.13;8266592;28;20072;-58
2023/06/24 10:19:24;;;;;;;8.13;5.22;;;;;;;34.73;46.13;101423.91;8266147;28;20046;-58
2023/06/24 10:23:38;;;;;;;12.05;5.28;;;;;;;34.85;44.72;101416.06;8269542;28;20044;-59
2023/06/24 10:27:39;;;;;;;12.30;5.30;;;;;;;35.69;44.75;101408.75;8267125;28;20040;-59
2023/06/24 10:31:45;;;;;;;8.57;4.35;;;;;;;35.77;43.98;101405.38;8268562;28;20046;-59
2023/06/24 10:35:46;;;;;;;8.40;4.07;;;;;;;36.55;43.96;101398.88;8269502;28;20038;-59
2023/06/24 10:40:02;;;;;;;9.35;4.13;;;;;;;36.97;42.99;101406.81;8271536;28;20095;-59
2023/06/24 10:44:14;;;;;;;8.18;4.32;;;;;;;36.99;40.55;101398.91;8267513;28;20497;-59
2023/06/24 10:48:15;;;;;;;9.88;5.10;;;;;;;36.43;40.83;101384.31;8271340;28;20038;-59
2023/06/24 10:52:20;;;;;;;6.43;4.37;;;;;;;37.48;40.48;101383.50;8264598;28;20065;-59
2023/06/24 10:56:21;;;;;;;6.35;4.47;;;;;;;37.31;41.83;101380.31;8271722;28;20269;-59
2023/06/24 11:00:22;;;;;;;5.30;3.92;;;;;;;36.38;43.44;101375.03;8267633;28;20114;-59
2023/06/24 11:04:22;;;;;;;10.02;4.32;;;;;;;35.96;41.61;101360.56;8270029;28;20137;-59
2023/06/24 11:08:24;;;;;;;11.10;5.13;;;;;;;37.13;43.81;101372.53;8272467;28;20112;-59
2023/06/24 11:12:27;;;;;;;11.90;4.70;;;;;;;37.29;40.40;101362.81;8275417;28;20289;-59
2023/06/24 11:16:30;;;;;;;11.70;4.77;;;;;;;36.73;39.90;101367.19;8276606;28;20370;-60
2023/06/24 11:20:30;;;;;;;6.07;4.22;;;;;;;36.06;45.01;101355.72;8264589;28;20281;-60
2023/06/24 11:24:31;;;;;;;9.98;3.80;;;;;;;36.57;41.35;101348.72;8273905;28;20049;-60
2023/06/24 11:28:32;;;;;;;7.35;3.85;;;;;;;37.04;39.41;101350.88;8273284;28;20058;-59
2023/06/24 11:32:42;;;;;;;6.07;3.80;;;;;;;37.94;38.68;101343.47;8276199;28;20316;-60
2023/06/24 11:36:42;;;;;;;7.65;3.40;;;;;;;37.72;38.52;101346.88;8273877;28;20037;-58
2023/06/24 11:40:43;;;;;;;5.90;3.45;;;;;;;37.55;40.59;101346.47;8271303;28;20516;-57
2023/06/24 11:44:43;;;;;;;5.63;2.95;;;;;;;38.36;40.25;101340.66;8270048;28;20046;-58
2023/06/24 11:48:44;;;;;;;6.70;2.97;;;;;;;38.59;38.42;101345.44;8271599;28;20049;-59
2023/06/24 11:52:48;;;;;;;7.00;3.50;;;;;;;38.64;37.19;101337.72;8267730;28;20044;-58
2023/06/24 11:56:51;;;;;;;4.80;3.47;;;;;;;38.28;39.28;101327.22;8268669;28;20096;-58
2023/06/24 12:00:54;;;;;;;5.70;3.50;;;;;;;36.96;38.74;101326.97;8266865;28;20073;-58
2023/06/24 12:04:54;;;;;;;8.43;3.70;;;;;;;35.65;39.11;101315.59;8269797;28;20046;-58
2023/06/24 12:08:55;;;;;;;7.05;3.63;;;;;;;35.48;39.56;101308.63;8269096;28;20042;-58
2023/06/24 12:12:58;;;;;;;6.97;3.33;;;;;;;34.74;41.95;101296.31;8271794;28;20160;-60
2023/06/24 12:16:58;;;;;;;7.18;3.55;;;;;;;32.53;44.15;101300.75;8271088;28;20054;-60
2023/06/24 12:20:58;;;;;;;6.40;3.40;;;;;;;31.03;45.24;101294.03;8267226;28;20053;-58
2023/06/24 12:24:59;;;;;;;6.20;3.70;;;;;;;30.31;46.81;101295.84;8267958;28;20286;-58
2023/06/24 12:29:00;;;;;;;3.92;2.95;;;;;;;30.08;47.07;101292.28;8269520;28;20038;-58
2023/06/24 12:33:00;;;;;;;6.95;2.80;;;;;;;29.94;46.45;101288.94;8270733;28;20091;-57
2023/06/24 12:37:01;;;;;;;4.50;2.85;;;;;;;29.58;46.71;101292.06;8262696;28;20389;-58
2023/06/24 12:41:02;;;;;;;5.05;2.97;;;;;;;29.51;47.16;101287.72;8268437;28;20046;-58
2023/06/24 12:45:03;;;;;;;4.63;2.50;;;;;;;29.77;47.20;101288.06;8269594;28;20550;-57
2023/06/24 12:49:03;;;;;;;5.32;2.75;;;;;;;29.65;47.21;101284.47;8271865;28;20057;-57
2023/06/24 12:53:04;;;;;;;4.35;2.70;;;;;;;30.18;49.20;101279.41;8268036;28;20579;-57
2023/06/24 12:57:05;;;;;;;3.50;2.75;;;;;;;30.23;50.47;101276.72;8267299;28;20034;-58
2023/06/24 13:01:05;;;;;;;3.88;3.03;;;;;;;30.46;49.63;101274.91;8265420;28;20067;-61
2023/06/24 13:05:06;;;;;;;3.97;2.72;;;;;;;30.03;45.96;101275.44;8268547;28;20558;-59
2023/06/24 13:09:06;;;;;;;3.75;2.60;;;;;;;29.70;47.10;101275.34;8267459;28;20045;-60
2023/06/24 13:13:06;;;;;;;4.13;2.50;;;;;;;29.79;48.47;101274.69;8266266;28;20058;-60
2023/06/24 13:17:07;;;;;;;3.72;2.45;;;;;;;29.42;47.33;101270.53;8264670;28;20042;-60
2023/06/24 13:21:07;;;;;;;2.55;2.30;;;;;;;29.50;48.37;101267.38;8267500;28;20085;-59
2023/06/24 13:25:08;;;;;;;3.25;2.65;;;;;;;29.47;48.56;101261.44;8268319;28;20081;-60
2023/06/24 13:29:09;;;;;;;2.80;2.15;;;;;;;29.56;47.97;101260.81;8263817;28;20060;-60
2023/06/24 13:33:09;;;;;;;3.65;2.17;;;;;;;29.34;46.82;101267.28;8266597;28;20089;-60
2023/06/24 13:37:09;;;;;;;3.38;2.20;;;;;;;29.41;48.53;101254.91;8270453;28;20042;-60
2023/06/24 13:41:10;;;;;;;3.53;1.97;;;;;;;29.53;47.64;101252.09;8268249;28;20124;-60
2023/06/24 13:45:10;;;;;;;3.40;2.53;;;;;;;29.62;46.47;101250.63;8266121;28;20374;-60
2023/06/24 13:49:11;;;;;;;5.22;2.20;;;;;;;29.40;47.40;101244.84;8268169;28;20421;-60
2023/06/24 13:53:11;;;;;;;4.18;2.60;;;;;;;29.40;47.25;101242.03;8266096;28;20167;-60
2023/06/24 13:57:12;;;;;;;2.45;2.05;;;;;;;29.48;48.09;101238.88;8268165;28;20045;-61
2023/06/24 14:01:13;;;;;;;2.13;1.65;;;;;;;29.37;47.23;101242.56;8262283;28;20046;-60
2023/06/24 14:05:13;;;;;;;4.60;2.33;;;;;;;29.27;46.72;101235.94;8268295;28;20539;-60
2023/06/24 14:09:14;;;;;;;3.03;1.92;;;;;;;29.45;46.73;101239.38;8268797;28;20136;-60
2023/06/24 14:13:14;;;;;;;6.07;2.27;;;;;;;29.35;45.37;101233.59;8268862;28;20038;-60
2023/06/24 14:17:15;;;;;;;2.70;1.90;;;;;;;29.39;45.50;101232.00;8267032;28;20655;-60
2023/06/24 14:21:15;;;;;;;3.67;1.70;;;;;;;29.25;45.88;101222.25;8266009;28;20038;-60
2023/06/24 14:25:16;;;;;;;6.20;2.15;;;;;;;29.62;46.16;101234.78;8265934;28;22448;-60
2023/06/24 14:29:17;;;;;;;3.03;1.65;;;;;;;29.51;44.91;101221.69;8265373;28;20050;-60
2023/06/24 14:33:17;;;;;;;3.03;1.90;;;;;;;29.31;45.19;101221.25;8265853;28;20037;-57
2023/06/24 14:37:18;;;;;;;3.90;1.90;;;;;;;29.52;44.55;101222.53;8264019;28;20207;-57
2023/06/24 14:41:18;;;;;;;3.05;1.83;;;;;;;29.41;44.22;101221.47;8266729;28;20034;-57
2023/06/24 14:45:19;;;;;;;3.35;1.58;;;;;;;29.22;44.80;101214.38;8271102;28;20049;-57
2023/06/24 14:49:19;;;;;;;2.28;1.42;;;;;;;29.35;45.38;101211.31;8271850;28;20030;-57
2023/06/24 14:53:20;;;;;;;2.40;1.73;;;;;;;29.11;44.76;101209.66;8271586;28;20404;-57
2023/06/24 14:57:23;;;;;;;2.05;1.80;;;;;;;29.45;45.31;101211.50;8272414;28;20035;-57
2023/06/24 15:01:26;;;;;;;2.27;1.83;;;;;;;29.23;45.10;101210.50;8270089;28;20406;-58
2023/06/24 15:05:27;;;;;;;1.83;1.63;;;;;;;29.43;45.09;101196.13;8271039;28;20041;-57
2023/06/24 15:09:28;;;;;;;4.07;2.20;;;;;;;29.38;46.21;101201.59;8255033;28;20045;-54
2023/06/24 15:13:28;;;;;;;2.17;1.63;;;;;;;29.49;44.75;101189.56;8252773;28;20034;-57
2023/06/24 15:17:30;;;;;;;40.15;9.02;;;;;;;29.22;45.06;101194.88;8247738;28;20137;-57
2023/06/24 15:21:30;;;;;;;3.20;1.60;;;;;;;29.04;44.79;101185.78;8254760;28;20034;-57
2023/06/24 15:25:31;;;;;;;2.25;1.33;;;;;;;29.44;45.17;101187.53;8258119;28;20034;-58
2023/06/24 15:29:31;;;;;;;3.30;1.60;;;;;;;29.37;44.37;101186.84;8265644;28;20042;-57
2023/06/24 15:33:31;;;;;;;3.50;1.83;;;;;;;29.33;43.50;101182.00;8263666;28;20081;-58
2023/06/24 15:37:32;;;;;;;4.97;1.70;;;;;;;29.08;43.63;101178.66;8265395;28;20038;-57
2023/06/24 15:41:32;;;;;;;2.58;1.85;;;;;;;29.35;44.72;101183.44;8264604;28;20297;-57
2023/06/24 15:45:33;;;;;;;5.05;2.40;;;;;;;29.35;46.48;101177.88;8259807;28;20041;-57
2023/06/24 15:49:33;;;;;;;1.77;1.48;;;;;;;29.39;44.21;101167.91;8254058;28;20133;-57
2023/06/24 15:53:34;;;;;;;2.15;1.95;;;;;;;29.25;43.81;101168.44;8246823;28;20057;-58
2023/06/24 15:57:34;;;;;;;3.75;1.58;;;;;;;29.21;43.50;101170.88;8262124;28;20042;-54
2023/06/24 16:01:35;;;;;;;2.85;1.30;;;;;;;29.18;43.56;101164.97;8259735;28;20097;-58
2023/06/24 16:05:35;;;;;;;4.93;2.00;;;;;;;29.34;45.13;101164.19;8262168;28;20050;-58
2023/06/24 16:09:36;;;;;;;4.80;1.70;;;;;;;29.25;48.21;101152.59;8262583;28;20503;-58
2023/06/24 16:13:36;;;;;;;2.10;1.60;;;;;;;29.22;44.07;101150.28;8266349;28;20088;-58
2023/06/24 16:17:37;;;;;;;2.42;1.70;;;;;;;29.37;43.78;101146.97;8268000;28;20046;-58
2023/06/24 16:21:37;;;;;;;2.42;1.52;;;;;;;29.38;44.25;101149.50;8268561;28;20112;-58
2023/06/24 16:25:38;;;;;;;2.38;1.70;;;;;;;29.35;43.27;101144.44;8254452;28;20054;-58
2023/06/24 16:29:38;;;;;;;2.33;2.00;;;;;;;29.29;43.21;101134.28;8255618;28;20104;-58
2023/06/24 16:33:39;;;;;;;2.22;1.60;;;;;;;29.20;42.23;101141.31;8259797;28;20301;-58
2023/06/24 16:37:41;;;;;;;2.78;1.88;;;;;;;29.29;43.20;101139.00;8265020;28;20042;-58
2023/06/24 16:41:41;;;;;;;5.10;1.60;;;;;;;29.23;42.37;101140.84;8260002;28;20042;-58
2023/06/24 16:45:42;;;;;;;1.77;1.50;;;;;;;29.27;42.24;101135.63;8266359;28;20129;-58
2023/06/24 16:49:48;;;;;;;2.25;1.65;;;;;;;29.38;41.65;101143.94;8264721;28;20034;-58
2023/06/24 16:53:48;;;;;;;2.30;1.63;;;;;;;29.35;42.06;101133.28;8263479;28;20500;-58
2023/06/24 16:57:48;;;;;;;4.07;1.47;;;;;;;29.19;41.47;101138.78;8259336;28;20496;-58
2023/06/24 17:01:49;;;;;;;2.40;1.50;;;;;;;29.18;41.42;101140.72;8278379;28;20324;-58
2023/06/24 17:05:49;;;;;;;2.20;1.58;;;;;;;29.09;41.58;101139.41;8259549;28;20324;-58
2023/06/24 17:09:50;;;;;;;4.05;1.85;;;;;;;29.06;42.55;101137.13;8265185;28;20042;-58
2023/06/24 17:13:50;;;;;;;2.38;1.90;;;;;;;28.92;42.71;101127.34;8269359;28;20038;-58
2023/06/24 17:17:51;;;;;;;3.53;1.85;;;;;;;28.79;41.50;101122.03;8263258;28;20041;-58
2023/06/24 17:21:51;;;;;;;3.47;1.60;;;;;;;28.97;44.52;101119.06;8265826;28;20054;-59
2023/06/24 17:25:52;;;;;;;4.50;1.58;;;;;;;29.15;43.63;101120.88;8267738;28;20038;-60
2023/06/24 17:29:56;;;;;;;4.05;1.63;;;;;;;29.09;43.79;101119.91;8266156;28;20048;-59
2023/06/24 17:33:56;;;;;;;3.05;1.90;;;;;;;29.03;44.47;101118.09;8265104;28;20448;-60
2023/06/24 17:37:56;;;;;;;3.13;1.70;;;;;;;29.06;45.41;101117.63;8267648;28;20049;-60
2023/06/24 17:41:57;;;;;;;4.15;1.35;;;;;;;28.87;46.28;101102.16;8266331;28;20282;-58
2023/06/24 17:45:57;;;;;;;4.57;1.90;;;;;;;28.88;45.35;101111.38;8267797;28;20065;-58
2023/06/24 17:49:58;;;;;;;4.00;2.10;;;;;;;28.95;44.27;101115.69;8269177;28;20042;-58
2023/06/24 17:53:58;;;;;;;2.72;1.30;;;;;;;28.93;44.74;101106.75;8267309;28;20409;-58
2023/06/24 17:57:59;;;;;;;3.47;1.90;;;;;;;28.93;44.24;101105.91;8263746;28;20093;-58
2023/06/24 18:01:59;;;;;;;4.32;1.52;;;;;;;28.88;45.41;101098.28;8265052;28;20035;-58
2023/06/24 18:06:01;;;;;;;3.50;2.10;;;;;;;28.78;45.37;101100.84;8269048;28;20038;-58
2023/06/24 18:10:02;;;;;;;5.88;1.67;;;;;;;28.57;46.54;101095.91;8266095;28;20046;-58
2023/06/24 18:14:03;;;;;;;2.78;1.67;;;;;;;28.62;47.30;101096.03;8250308;28;20045;-59
2023/06/24 18:18:03;;;;;;;2.40;1.40;;;;;;;28.54;47.78;101090.84;8262056;28;20133;-61
2023/06/24 18:22:04;;;;;;;1.60;1.33;;;;;;;28.45;45.70;101086.72;8267543;28;20034;-60
2023/06/24 18:26:04;;;;;;;5.20;2.30;;;;;;;28.34;50.18;101084.78;8270001;28;20038;-59
2023/06/24 18:30:07;;;;;;;4.00;1.98;;;;;;;27.97;50.99;101077.78;8263046;28;20042;-60